Time;durP1;ratioP1;P1;durP2;ratioP2;P2;SDS_P1;SDS_P2;PMS_P1;PMS_P2;Temp;Humidity;BMP_temperature;BMP_pressure;BME280_temperature;BME280_humidity;BME280_pressure;Samples;Min_cycle;Max_cycle;Signal;HPM_P1;HPM_P2
2022/02/28 00:02:05;;;;;;;7.82;3.83;;;;;;;;;;4994812;28;20054;-63
2022/02/28 00:04:38;;;;;;;8.27;3.13;;;;;;;;;;4995021;28;20502;-63
2022/02/28 00:07:10;;;;;;;5.80;3.35;;;;;;;;;;4962837;28;20069;-63
2022/02/28 00:09:40;;;;;;;11.25;3.83;;;;;;;;;;5010961;28;20058;-63
2022/02/28 00:12:12;;;;;;;7.53;4.15;;;;;;;;;;4975811;28;20061;-64
2022/02/28 00:14:45;;;;;;;7.20;3.42;;;;;;;;;;5002783;28;20453;-64
2022/02/28 00:17:17;;;;;;;16.13;3.70;;;;;;;;;;4992109;28;20064;-63
2022/02/28 00:19:47;;;;;;;7.05;3.42;;;;;;;;;;4987500;28;20408;-64
2022/02/28 00:22:17;;;;;;;7.90;3.25;;;;;;;;;;4957625;28;20055;-64
2022/02/28 00:24:48;;;;;;;7.78;3.17;;;;;;;;;;4951247;29;20059;-63
2022/02/28 00:27:20;;;;;;;7.32;3.58;;;;;;;;;;4949415;29;20503;-64
2022/02/28 00:29:52;;;;;;;9.70;4.32;;;;;;;;;;4930211;29;20405;-63
2022/02/28 00:32:24;;;;;;;6.75;3.47;;;;;;;;;;4930976;29;20538;-63
2022/02/28 00:35:02;;;;;;;9.73;3.42;;;;;;;;;;4912176;29;20067;-63
2022/02/28 00:37:34;;;;;;;10.20;3.55;;;;;;;;;;4896814;29;20067;-64
2022/02/28 00:40:09;;;;;;;7.50;3.83;;;;;;;;;;4912360;29;20075;-63
2022/02/28 00:42:39;;;;;;;7.78;3.10;;;;;;;;;;4909974;29;20071;-64
2022/02/28 00:45:13;;;;;;;9.00;3.45;;;;;;;;;;4911900;29;20064;-64
2022/02/28 00:48:12;;;;;;;7.20;3.58;;;;;;;;;;4912712;29;20076;-63
2022/02/28 00:50:45;;;;;;;11.07;3.83;;;;;;;;;;4907545;29;20044;-63
2022/02/28 00:53:18;;;;;;;8.85;3.50;;;;;;;;;;4907991;29;20556;-63
2022/02/28 00:55:50;;;;;;;10.55;4.28;;;;;;;;;;4891403;29;20060;-64
2022/02/28 00:58:22;;;;;;;13.50;3.92;;;;;;;;;;4895495;29;20059;-63
2022/02/28 01:00:54;;;;;;;8.02;3.65;;;;;;;;;;4944690;29;20066;-64
2022/02/28 01:03:26;;;;;;;7.07;4.00;;;;;;;;;;4945870;29;20063;-63
2022/02/28 01:05:58;;;;;;;10.27;3.90;;;;;;;;;;4929282;29;20508;-64
2022/02/28 01:08:30;;;;;;;10.57;4.50;;;;;;;;;;4948317;29;20070;-64
2022/02/28 01:11:01;;;;;;;15.15;4.50;;;;;;;;;;4950056;29;20058;-64
2022/02/28 01:13:32;;;;;;;9.95;4.13;;;;;;;;;;4945406;28;20062;-64
2022/02/28 01:16:07;;;;;;;10.73;3.92;;;;;;;;;;4984037;28;20066;-64
2022/02/28 01:18:39;;;;;;;9.70;4.03;;;;;;;;;;4985283;28;20046;-64
2022/02/28 01:21:09;;;;;;;7.60;4.20;;;;;;;;;;4939091;28;20455;-64
2022/02/28 01:23:40;;;;;;;9.25;4.00;;;;;;;;;;4989978;28;20054;-64
2022/02/28 01:26:11;;;;;;;9.23;3.72;;;;;;;;;;4989869;28;20541;-63
2022/02/28 01:28:43;;;;;;;8.25;4.18;;;;;;;;;;4975047;28;20549;-64
2022/02/28 01:31:16;;;;;;;10.02;4.88;;;;;;;;;;4951129;29;20067;-64
2022/02/28 01:33:46;;;;;;;10.52;4.85;;;;;;;;;;4915803;29;20052;-64
2022/02/28 01:36:17;;;;;;;8.85;4.50;;;;;;;;;;4916319;29;20055;-63
2022/02/28 01:38:48;;;;;;;10.20;4.30;;;;;;;;;;4931934;29;20405;-64
2022/02/28 01:41:19;;;;;;;10.13;4.30;;;;;;;;;;4931670;29;20055;-63
2022/02/28 01:43:49;;;;;;;9.30;4.18;;;;;;;;;;4899847;29;20055;-63
2022/02/28 01:46:21;;;;;;;7.07;4.20;;;;;;;;;;4900390;29;20190;-64
2022/02/28 01:48:52;;;;;;;12.65;4.60;;;;;;;;;;4931879;29;20067;-64
2022/02/28 01:51:26;;;;;;;10.25;5.25;;;;;;;;;;4931587;29;20060;-64
2022/02/28 01:53:57;;;;;;;11.30;5.38;;;;;;;;;;4914913;29;20513;-64
2022/02/28 01:56:30;;;;;;;12.35;5.85;;;;;;;;;;4884531;29;20062;-64
2022/02/28 01:59:04;;;;;;;11.75;5.32;;;;;;;;;;4912530;29;20056;-64
2022/02/28 02:01:35;;;;;;;17.10;5.40;;;;;;;;;;4912510;29;20071;-64
2022/02/28 02:04:06;;;;;;;13.73;5.70;;;;;;;;;;4912234;29;20083;-64
2022/02/28 02:06:40;;;;;;;11.00;5.22;;;;;;;;;;4900965;29;20064;-64
2022/02/28 02:09:14;;;;;;;12.43;5.50;;;;;;;;;;4912273;29;20067;-64
2022/02/28 02:11:46;;;;;;;12.93;5.93;;;;;;;;;;4933699;28;20055;-63
2022/02/28 02:14:17;;;;;;;17.50;6.28;;;;;;;;;;4899713;29;20394;-64
2022/02/28 02:16:50;;;;;;;13.45;6.03;;;;;;;;;;4931164;29;20074;-64
2022/02/28 02:19:24;;;;;;;17.55;6.85;;;;;;;;;;4912214;29;20562;-64
2022/02/28 02:21:55;;;;;;;12.75;5.70;;;;;;;;;;4912107;29;20064;-64
2022/02/28 02:24:25;;;;;;;15.23;5.78;;;;;;;;;;4912359;29;20060;-64
2022/02/28 02:26:56;;;;;;;13.57;5.90;;;;;;;;;;4896939;29;20056;-64
2022/02/28 02:29:27;;;;;;;12.70;5.45;;;;;;;;;;4908726;29;20040;-63
2022/02/28 02:32:10;;;;;;;16.15;6.63;;;;;;;;;;4893415;29;20053;-63
2022/02/28 02:34:45;;;;;;;15.77;6.55;;;;;;;;;;4893194;29;20103;-63
2022/02/28 02:37:15;;;;;;;17.08;6.95;;;;;;;;;;4925449;29;20062;-63
2022/02/28 02:39:47;;;;;;;18.23;6.85;;;;;;;;;;4893167;29;20056;-64
2022/02/28 02:42:18;;;;;;;15.07;7.03;;;;;;;;;;4861812;29;20064;-64
2022/02/28 02:44:50;;;;;;;13.80;6.32;;;;;;;;;;4893176;29;20421;-64
2022/02/28 02:47:20;;;;;;;14.57;5.82;;;;;;;;;;4893146;29;20065;-63
2022/02/28 02:50:08;;;;;;;17.90;6.50;;;;;;;;;;4892829;29;20462;-63
2022/02/28 02:52:42;;;;;;;16.40;7.07;;;;;;;;;;4874186;29;20064;-63
2022/02/28 02:55:15;;;;;;;13.52;6.70;;;;;;;;;;4874530;29;20438;-63
2022/02/28 02:57:45;;;;;;;16.50;6.45;;;;;;;;;;4843509;29;20065;-64
2022/02/28 03:00:17;;;;;;;15.45;6.30;;;;;;;;;;4833975;29;20450;-64
2022/02/28 03:03:19;;;;;;;20.83;6.85;;;;;;;;;;4824782;29;20050;-64
2022/02/28 03:05:51;;;;;;;16.23;7.30;;;;;;;;;;4827545;29;20054;-64
2022/02/28 03:08:26;;;;;;;14.90;6.47;;;;;;;;;;4821913;29;20058;-64
2022/02/28 03:10:59;;;;;;;16.70;8.25;;;;;;;;;;4792478;29;20440;-64
2022/02/28 03:13:33;;;;;;;16.70;6.22;;;;;;;;;;4768803;29;20556;-64
2022/02/28 03:16:05;;;;;;;15.95;6.50;;;;;;;;;;4785289;29;21028;-64
2022/02/28 03:18:38;;;;;;;14.88;6.90;;;;;;;;;;4840197;29;20073;-64
2022/02/28 03:21:10;;;;;;;17.73;7.45;;;;;;;;;;4825006;29;20050;-64
2022/02/28 03:23:40;;;;;;;16.58;7.43;;;;;;;;;;4840461;29;20427;-64
2022/02/28 03:26:14;;;;;;;14.30;6.40;;;;;;;;;;4858282;29;20065;-64
2022/02/28 03:28:44;;;;;;;20.60;6.95;;;;;;;;;;4875625;29;20057;-64
2022/02/28 03:31:17;;;;;;;18.38;6.50;;;;;;;;;;4861050;29;20069;-64
2022/02/28 03:33:48;;;;;;;11.18;5.63;;;;;;;;;;4863829;29;20053;-64
2022/02/28 03:36:21;;;;;;;14.38;5.60;;;;;;;;;;4873089;29;20049;-64
2022/02/28 03:38:55;;;;;;;12.55;5.35;;;;;;;;;;4806829;29;20047;-64
2022/02/28 03:41:34;;;;;;;10.18;5.55;;;;;;;;;;4803952;29;20065;-64
2022/02/28 03:44:07;;;;;;;12.88;5.88;;;;;;;;;;4817200;29;20058;-64
2022/02/28 03:46:41;;;;;;;12.88;6.47;;;;;;;;;;4844043;29;20061;-64
2022/02/28 03:49:11;;;;;;;17.55;6.30;;;;;;;;;;4858391;29;20054;-64
2022/02/28 03:52:06;;;;;;;15.15;6.05;;;;;;;;;;4891412;29;20063;-64
2022/02/28 03:54:56;;;;;;;13.25;6.22;;;;;;;;;;4895522;29;20056;-64
2022/02/28 03:57:30;;;;;;;12.32;5.93;;;;;;;;;;4914312;29;20056;-64
2022/02/28 04:00:00;;;;;;;10.60;5.10;;;;;;;;;;4879328;29;20041;-64
2022/02/28 04:02:45;;;;;;;12.90;6.55;;;;;;;;;;4852780;29;20509;-64
2022/02/28 04:05:20;;;;;;;14.38;5.80;;;;;;;;;;4858233;29;20065;-64
2022/02/28 04:07:52;;;;;;;12.93;5.65;;;;;;;;;;4820979;29;20055;-64
2022/02/28 04:10:22;;;;;;;14.15;6.15;;;;;;;;;;4821226;29;20066;-64
2022/02/28 04:12:56;;;;;;;12.65;6.40;;;;;;;;;;4790384;29;20051;-64
2022/02/28 04:15:28;;;;;;;10.77;5.80;;;;;;;;;;4838718;29;20058;-64
2022/02/28 04:17:58;;;;;;;11.10;5.00;;;;;;;;;;4857062;29;20084;-64
2022/02/28 04:20:35;;;;;;;9.93;5.57;;;;;;;;;;4857930;29;20062;-64
2022/02/28 04:23:09;;;;;;;11.43;5.22;;;;;;;;;;4820677;29;20061;-64
2022/02/28 04:25:43;;;;;;;14.55;5.65;;;;;;;;;;4806807;29;20054;-64
2022/02/28 04:28:18;;;;;;;12.77;6.18;;;;;;;;;;4802548;29;20054;-64
2022/02/28 04:30:48;;;;;;;20.83;6.07;;;;;;;;;;4790430;29;20060;-64
2022/02/28 04:33:23;;;;;;;13.95;5.97;;;;;;;;;;4813931;29;20577;-64
2022/02/28 04:35:54;;;;;;;11.25;5.53;;;;;;;;;;4805895;29;20424;-64
2022/02/28 04:38:27;;;;;;;13.15;6.03;;;;;;;;;;4818174;29;20444;-64
2022/02/28 04:40:58;;;;;;;13.77;6.07;;;;;;;;;;4838845;29;20066;-64
2022/02/28 04:43:31;;;;;;;15.30;6.28;;;;;;;;;;4852008;29;20073;-64
2022/02/28 04:46:04;;;;;;;10.68;5.78;;;;;;;;;;4794880;29;20055;-64
2022/02/28 04:48:36;;;;;;;14.70;6.30;;;;;;;;;;4820408;29;20511;-64
2022/02/28 04:51:29;;;;;;;9.00;5.25;;;;;;;;;;4836310;29;20064;-64
2022/02/28 04:54:07;;;;;;;11.18;5.72;;;;;;;;;;4838627;29;20435;-64
2022/02/28 04:56:42;;;;;;;14.13;6.03;;;;;;;;;;4821997;29;20061;-64
2022/02/28 04:59:13;;;;;;;15.52;5.75;;;;;;;;;;4856841;29;20061;-64
2022/02/28 05:01:55;;;;;;;11.80;5.15;;;;;;;;;;4833455;29;20061;-64
2022/02/28 05:04:46;;;;;;;11.48;5.60;;;;;;;;;;4836967;29;20606;-64
2022/02/28 05:07:20;;;;;;;12.02;5.60;;;;;;;;;;4856771;29;20061;-64
2022/02/28 05:09:54;;;;;;;15.82;5.47;;;;;;;;;;4819564;29;20051;-64
2022/02/28 05:12:24;;;;;;;10.80;5.60;;;;;;;;;;4812584;29;20062;-64
2022/02/28 05:14:56;;;;;;;10.73;6.03;;;;;;;;;;4786992;29;20143;-64
2022/02/28 05:17:26;;;;;;;10.95;6.65;;;;;;;;;;4807937;29;20057;-64
2022/02/28 05:19:59;;;;;;;11.88;5.70;;;;;;;;;;4838601;29;20105;-64
2022/02/28 05:22:31;;;;;;;14.02;6.07;;;;;;;;;;4856743;29;20054;-64
2022/02/28 05:25:06;;;;;;;12.98;6.03;;;;;;;;;;4837813;29;20088;-64
2022/02/28 05:27:45;;;;;;;12.02;5.72;;;;;;;;;;4820073;29;20057;-64
2022/02/28 05:30:19;;;;;;;11.85;5.78;;;;;;;;;;4838068;29;20058;-64
2022/02/28 05:32:53;;;;;;;11.38;5.90;;;;;;;;;;4838192;29;20054;-64
2022/02/28 05:35:34;;;;;;;10.65;5.68;;;;;;;;;;4838214;29;20511;-64
2022/02/28 05:38:22;;;;;;;17.52;6.43;;;;;;;;;;4838131;29;20050;-64
2022/02/28 05:41:00;;;;;;;;;;;;;;;;;;4838291;29;20069;-64
2022/02/28 05:43:37;;;;;;;13.15;6.00;;;;;;;;;;4833640;29;19925;-64
2022/02/28 05:46:11;;;;;;;16.02;5.90;;;;;;;;;;4792898;29;20411;-64
2022/02/28 05:48:47;;;;;;;14.95;6.00;;;;;;;;;;4837761;29;20065;-64
2022/02/28 05:51:25;;;;;;;13.43;5.88;;;;;;;;;;4837580;29;20065;-64
2022/02/28 05:53:56;;;;;;;11.45;5.57;;;;;;;;;;4837720;29;20065;-64
2022/02/28 05:56:29;;;;;;;10.48;6.40;;;;;;;;;;4804578;29;20108;-64
2022/02/28 05:59:01;;;;;;;13.65;6.47;;;;;;;;;;4848651;29;20062;-64
2022/02/28 06:01:37;;;;;;;16.02;6.00;;;;;;;;;;4820020;29;20065;-64
2022/02/28 06:04:08;;;;;;;15.90;6.72;;;;;;;;;;4834139;29;20058;-64
2022/02/28 06:06:39;;;;;;;14.50;6.30;;;;;;;;;;4856004;29;20056;-64
2022/02/28 06:09:12;;;;;;;11.48;6.05;;;;;;;;;;4813558;29;20532;-64
2022/02/28 06:11:44;;;;;;;13.05;6.82;;;;;;;;;;4871196;29;20049;-64
2022/02/28 06:14:17;;;;;;;11.23;6.18;;;;;;;;;;4856231;29;20069;-64
2022/02/28 06:16:52;;;;;;;14.27;6.55;;;;;;;;;;4856518;29;20084;-64
2022/02/28 06:19:26;;;;;;;16.33;7.10;;;;;;;;;;4871038;29;20485;-64
2022/02/28 06:21:58;;;;;;;14.88;6.97;;;;;;;;;;4859596;29;20589;-64
2022/02/28 06:24:28;;;;;;;13.10;7.00;;;;;;;;;;4874832;29;20143;-64
2022/02/28 06:27:00;;;;;;;12.40;6.95;;;;;;;;;;4901619;29;20067;-64
2022/02/28 06:29:31;;;;;;;13.48;7.10;;;;;;;;;;4938302;29;20103;-64
2022/02/28 06:32:04;;;;;;;15.65;6.75;;;;;;;;;;4919227;29;20055;-64
2022/02/28 06:34:34;;;;;;;15.65;6.70;;;;;;;;;;4950388;29;20058;-64
2022/02/28 06:37:05;;;;;;;12.55;6.22;;;;;;;;;;4950202;29;20054;-64
2022/02/28 06:39:38;;;;;;;15.85;7.00;;;;;;;;;;4951225;28;20051;-64
2022/02/28 06:42:09;;;;;;;12.77;6.60;;;;;;;;;;4966457;28;20065;-64
2022/02/28 06:44:39;;;;;;;14.93;7.40;;;;;;;;;;4987425;28;20058;-64
2022/02/28 06:47:11;;;;;;;14.70;7.32;;;;;;;;;;4954106;28;20435;-64
2022/02/28 06:49:44;;;;;;;15.70;6.90;;;;;;;;;;4954018;28;20066;-64
2022/02/28 06:52:14;;;;;;;12.95;6.53;;;;;;;;;;4954042;28;20063;-64
2022/02/28 06:54:44;;;;;;;14.52;7.22;;;;;;;;;;4922663;28;20128;-64
2022/02/28 06:57:16;;;;;;;14.05;6.70;;;;;;;;;;4953981;28;20055;-64
2022/02/28 06:59:48;;;;;;;13.98;6.80;;;;;;;;;;4937446;28;20059;-64
2022/02/28 07:02:21;;;;;;;15.73;6.63;;;;;;;;;;4896526;29;20056;-64
2022/02/28 07:05:07;;;;;;;13.02;5.65;;;;;;;;;;4883210;29;20139;-64
2022/02/28 07:07:41;;;;;;;12.32;6.30;;;;;;;;;;4896721;29;20430;-64
2022/02/28 07:10:14;;;;;;;11.77;6.35;;;;;;;;;;4896712;29;20075;-64
2022/02/28 07:12:45;;;;;;;13.25;6.28;;;;;;;;;;4877687;29;20057;-64
2022/02/28 07:15:15;;;;;;;12.57;6.05;;;;;;;;;;4878022;29;20176;-64
2022/02/28 07:17:54;;;;;;;18.88;6.22;;;;;;;;;;4877813;29;20407;-64
2022/02/28 07:20:28;;;;;;;10.63;5.70;;;;;;;;;;4877779;29;20144;-64
2022/02/28 07:22:59;;;;;;;11.55;5.65;;;;;;;;;;4861695;29;20049;-64
2022/02/28 07:25:29;;;;;;;14.27;6.63;;;;;;;;;;4922530;29;20056;-64
2022/02/28 07:28:03;;;;;;;14.57;6.28;;;;;;;;;;4918805;29;20086;-64
2022/02/28 07:30:34;;;;;;;13.13;5.28;;;;;;;;;;4887227;29;20056;-64
2022/02/28 07:33:04;;;;;;;12.35;6.18;;;;;;;;;;4934048;29;20079;-64
2022/02/28 07:35:36;;;;;;;11.98;5.95;;;;;;;;;;4934267;29;20055;-64
2022/02/28 07:38:08;;;;;;;11.80;6.05;;;;;;;;;;4896910;29;20059;-64
2022/02/28 07:40:39;;;;;;;11.02;5.70;;;;;;;;;;4919163;29;20083;-64
2022/02/28 07:43:10;;;;;;;9.10;5.30;;;;;;;;;;4914945;29;20060;-64
2022/02/28 07:45:40;;;;;;;13.95;5.20;;;;;;;;;;4895858;29;20417;-64
2022/02/28 07:48:14;;;;;;;13.55;5.88;;;;;;;;;;4895807;29;20060;-64
2022/02/28 07:50:47;;;;;;;9.73;5.90;;;;;;;;;;4907968;29;20496;-64
2022/02/28 07:53:23;;;;;;;13.80;6.13;;;;;;;;;;4914669;29;20071;-64
2022/02/28 07:55:54;;;;;;;11.55;6.20;;;;;;;;;;4914341;29;20063;-64
2022/02/28 07:58:24;;;;;;;11.30;5.65;;;;;;;;;;4876618;29;20084;-64
2022/02/28 08:01:00;;;;;;;14.85;6.90;;;;;;;;;;4888179;29;20430;-64
2022/02/28 08:03:31;;;;;;;14.05;6.82;;;;;;;;;;4876477;29;20107;-64
2022/02/28 08:06:02;;;;;;;16.92;6.05;;;;;;;;;;4876901;29;20069;-64
2022/02/28 08:08:40;;;;;;;10.18;5.53;;;;;;;;;;4861828;29;20061;-64
2022/02/28 08:11:12;;;;;;;14.23;6.50;;;;;;;;;;4861629;29;20144;-64
2022/02/28 08:13:43;;;;;;;14.00;6.55;;;;;;;;;;4876275;29;20053;-64
2022/02/28 08:16:13;;;;;;;13.25;6.20;;;;;;;;;;4839652;29;20065;-64
2022/02/28 08:18:44;;;;;;;16.42;6.05;;;;;;;;;;4809091;29;20054;-64
2022/02/28 08:21:15;;;;;;;12.95;6.35;;;;;;;;;;4808589;29;20482;-64
2022/02/28 08:23:46;;;;;;;13.05;5.63;;;;;;;;;;4814892;29;20063;-64
2022/02/28 08:26:16;;;;;;;10.68;5.45;;;;;;;;;;4773258;29;20058;-64
2022/02/28 08:28:51;;;;;;;14.13;5.95;;;;;;;;;;4816104;29;20058;-64
2022/02/28 08:31:24;;;;;;;13.18;5.78;;;;;;;;;;4791948;29;20794;-64
2022/02/28 08:33:56;;;;;;;11.80;5.45;;;;;;;;;;4844203;29;20057;-64
2022/02/28 08:36:28;;;;;;;17.05;5.85;;;;;;;;;;4871062;29;20049;-64
2022/02/28 08:38:59;;;;;;;12.77;5.53;;;;;;;;;;4876077;29;20053;-64
2022/02/28 08:41:36;;;;;;;12.15;5.85;;;;;;;;;;4857480;29;20068;-64
2022/02/28 08:44:09;;;;;;;14.25;6.20;;;;;;;;;;4857311;29;20061;-65
2022/02/28 08:46:39;;;;;;;12.77;5.43;;;;;;;;;;4857421;29;20061;-65
2022/02/28 08:49:10;;;;;;;13.20;6.03;;;;;;;;;;4857673;29;20067;-65
2022/02/28 08:51:41;;;;;;;13.82;5.35;;;;;;;;;;4827365;29;20057;-65
2022/02/28 08:54:13;;;;;;;13.82;6.05;;;;;;;;;;4881625;29;20407;-65
2022/02/28 08:56:47;;;;;;;15.32;5.82;;;;;;;;;;4894538;29;20498;-65
2022/02/28 08:59:17;;;;;;;11.10;5.53;;;;;;;;;;4894501;29;20060;-65
2022/02/28 09:01:54;;;;;;;10.63;5.53;;;;;;;;;;4894344;29;20074;-65
2022/02/28 09:04:27;;;;;;;8.15;5.32;;;;;;;;;;4894451;29;20072;-65
2022/02/28 09:07:03;;;;;;;12.57;5.65;;;;;;;;;;4894455;29;20071;-65
2022/02/28 09:09:33;;;;;;;17.15;5.38;;;;;;;;;;4894280;29;20060;-65
2022/02/28 09:12:04;;;;;;;14.30;5.45;;;;;;;;;;4863046;29;20421;-65
2022/02/28 09:14:38;;;;;;;12.75;5.30;;;;;;;;;;4909565;29;20049;-65
2022/02/28 09:17:09;;;;;;;9.63;5.20;;;;;;;;;;4894395;29;20057;-65
2022/02/28 09:19:39;;;;;;;10.43;5.45;;;;;;;;;;4888177;29;20572;-65
2022/02/28 09:22:11;;;;;;;17.52;5.97;;;;;;;;;;4894166;29;20061;-65
2022/02/28 09:24:45;;;;;;;13.23;5.90;;;;;;;;;;4881016;29;20101;-65
2022/02/28 09:27:17;;;;;;;13.45;6.15;;;;;;;;;;4863153;29;20141;-65
2022/02/28 09:30:10;;;;;;;10.77;6.07;;;;;;;;;;4893944;29;20409;-65
2022/02/28 09:32:47;;;;;;;11.70;5.40;;;;;;;;;;4874953;29;20088;-65
2022/02/28 09:35:19;;;;;;;10.70;5.20;;;;;;;;;;4863862;29;20534;-65
2022/02/28 09:37:52;;;;;;;11.13;5.68;;;;;;;;;;4893773;29;20068;-65
2022/02/28 09:40:31;;;;;;;10.48;5.28;;;;;;;;;;4856675;29;20207;-65
2022/02/28 09:43:22;;;;;;;14.63;5.82;;;;;;;;;;4817948;29;20065;-66
2022/02/28 09:46:14;;;;;;;14.02;5.70;;;;;;;;;;4857175;29;20053;-65
2022/02/28 09:49:27;;;;;;;18.58;5.38;;;;;;;;;;4857100;29;20423;-65
2022/02/28 09:52:17;;;;;;;10.45;5.50;;;;;;;;;;4856704;29;20446;-65
2022/02/28 09:55:23;;;;;;;11.43;5.18;;;;;;;;;;4875254;29;20049;-64
2022/02/28 09:58:31;;;;;;;10.18;5.60;;;;;;;;;;4856560;29;20479;-64
2022/02/28 10:01:06;;;;;;;20.55;5.53;;;;;;;;;;4856351;29;20438;-64
2022/02/28 10:03:43;;;;;;;13.50;5.70;;;;;;;;;;4893236;29;20057;-64
2022/02/28 10:06:17;;;;;;;16.55;6.50;;;;;;;;;;4893247;29;20056;-64
2022/02/28 10:08:51;;;;;;;14.82;6.35;;;;;;;;;;4862170;29;20551;-64
2022/02/28 10:11:34;;;;;;;14.85;6.05;;;;;;;;;;4878441;29;20056;-64
2022/02/28 10:14:10;;;;;;;9.52;5.40;;;;;;;;;;4892626;29;20060;-64
2022/02/28 10:17:00;;;;;;;13.25;6.18;;;;;;;;;;4892949;29;20064;-64
2022/02/28 10:19:36;;;;;;;11.00;5.95;;;;;;;;;;4874940;29;20068;-65
2022/02/28 10:22:09;;;;;;;13.73;5.25;;;;;;;;;;4874699;29;20769;-65
2022/02/28 10:24:43;;;;;;;11.00;5.75;;;;;;;;;;4807439;29;20057;-65
2022/02/28 10:27:40;;;;;;;11.85;5.25;;;;;;;;;;4772125;29;20055;-65
2022/02/28 10:30:30;;;;;;;11.85;5.32;;;;;;;;;;4779794;30;20052;-64
2022/02/28 10:33:41;;;;;;;11.13;5.10;;;;;;;;;;4744386;30;20057;-65
2022/02/28 10:36:37;;;;;;;14.95;6.57;;;;;;;;;;4747375;30;20059;-65
2022/02/28 10:39:12;;;;;;;12.52;6.00;;;;;;;;;;4735972;30;20470;-65
2022/02/28 10:41:44;;;;;;;11.18;6.45;;;;;;;;;;4764454;30;20059;-65
2022/02/28 10:44:15;;;;;;;12.32;5.85;;;;;;;;;;4783219;30;20051;-64
2022/02/28 10:46:47;;;;;;;11.77;6.97;;;;;;;;;;4782980;30;20060;-64
2022/02/28 10:49:30;;;;;;;10.40;6.07;;;;;;;;;;4819033;29;20059;-64
2022/02/28 10:52:09;;;;;;;15.60;6.32;;;;;;;;;;4819311;29;20574;-65
2022/02/28 10:54:45;;;;;;;11.85;6.05;;;;;;;;;;4818317;29;20058;-65
2022/02/28 10:57:21;;;;;;;16.95;6.22;;;;;;;;;;4819284;29;20054;-65
2022/02/28 10:59:56;;;;;;;13.35;5.72;;;;;;;;;;4819428;29;20061;-64
2022/02/28 11:02:48;;;;;;;12.63;6.18;;;;;;;;;;4862288;29;20057;-65
2022/02/28 11:05:25;;;;;;;12.63;5.82;;;;;;;;;;4914334;29;20094;-65
2022/02/28 11:07:58;;;;;;;11.40;6.20;;;;;;;;;;4914875;29;20432;-65
2022/02/28 11:10:41;;;;;;;10.32;5.75;;;;;;;;;;4930919;29;20497;-65
2022/02/28 11:13:16;;;;;;;13.02;6.40;;;;;;;;;;4889791;29;20051;-65
2022/02/28 11:15:49;;;;;;;16.92;6.50;;;;;;;;;;4949994;29;20059;-65
2022/02/28 11:18:20;;;;;;;16.27;6.45;;;;;;;;;;4918252;29;20475;-64
2022/02/28 11:20:55;;;;;;;13.15;6.20;;;;;;;;;;4949767;29;20063;-65
2022/02/28 11:23:29;;;;;;;10.07;5.95;;;;;;;;;;4917795;29;20471;-65
2022/02/28 11:25:59;;;;;;;16.52;6.43;;;;;;;;;;4955114;28;20047;-65
2022/02/28 11:28:30;;;;;;;12.38;6.50;;;;;;;;;;4992118;28;20521;-65
2022/02/28 11:31:06;;;;;;;13.00;6.85;;;;;;;;;;4976095;28;20086;-65
2022/02/28 11:34:03;;;;;;;13.45;6.72;;;;;;;;;;4976031;28;20093;-65
2022/02/28 11:36:52;;;;;;;11.50;6.00;;;;;;;;;;4952754;29;20067;-65
2022/02/28 11:39:31;;;;;;;14.10;6.20;;;;;;;;;;4954761;28;20070;-65
2022/02/28 11:42:08;;;;;;;11.43;6.18;;;;;;;;;;4940633;28;20419;-65
2022/02/28 11:44:55;;;;;;;13.05;6.20;;;;;;;;;;4972445;28;20066;-64
2022/02/28 11:47:26;;;;;;;14.75;5.85;;;;;;;;;;4972274;28;20554;-65
2022/02/28 11:50:18;;;;;;;11.02;5.82;;;;;;;;;;4972549;28;20558;-65
2022/02/28 11:52:48;;;;;;;13.95;6.28;;;;;;;;;;4972331;28;20869;-65
2022/02/28 11:55:20;;;;;;;11.23;6.00;;;;;;;;;;4956295;28;20054;-65
2022/02/28 11:57:56;;;;;;;12.10;5.68;;;;;;;;;;4939748;28;20752;-64
2022/02/28 12:00:47;;;;;;;10.82;5.15;;;;;;;;;;4952543;29;20062;-64
2022/02/28 12:03:25;;;;;;;10.65;5.45;;;;;;;;;;4952778;29;20081;-65
2022/02/28 12:05:58;;;;;;;11.77;5.28;;;;;;;;;;4936921;29;20070;-64
2022/02/28 12:08:40;;;;;;;11.32;6.32;;;;;;;;;;4922107;29;20058;-64
2022/02/28 12:11:28;;;;;;;11.45;6.32;;;;;;;;;;4952460;29;20400;-65
2022/02/28 12:14:06;;;;;;;21.35;7.13;;;;;;;;;;4960284;28;20058;-64
2022/02/28 12:19:36;;;;;;;11.90;6.13;;;;;;;;;;4971446;28;20063;-64
2022/02/28 12:22:06;;;;;;;9.80;5.20;;;;;;;;;;4923543;28;20054;-64
2022/02/28 12:25:04;;;;;;;10.48;5.28;;;;;;;;;;4939520;28;20066;-64
2022/02/28 12:27:41;;;;;;;10.25;5.13;;;;;;;;;;4971493;28;20046;-64
2022/02/28 12:30:37;;;;;;;13.38;5.32;;;;;;;;;;4939656;28;20058;-64
2022/02/28 12:33:07;;;;;;;9.10;4.75;;;;;;;;;;4971513;28;20047;-64
2022/02/28 12:35:57;;;;;;;7.57;4.65;;;;;;;;;;4955934;28;20046;-64
2022/02/28 12:38:31;;;;;;;5.82;3.38;;;;;;;;;;4997099;28;20490;-64
2022/02/28 12:41:07;;;;;;;8.98;4.50;;;;;;;;;;5012518;28;20042;-64
2022/02/28 12:43:41;;;;;;;7.45;4.18;;;;;;;;;;5012610;28;20049;-64
2022/02/28 12:46:20;;;;;;;9.48;4.22;;;;;;;;;;5012759;28;20042;-64
2022/02/28 12:48:51;;;;;;;7.88;3.95;;;;;;;;;;5012524;28;20038;-64
2022/02/28 12:51:28;;;;;;;8.60;3.80;;;;;;;;;;5012777;28;20390;-64
2022/02/28 12:54:20;;;;;;;10.13;5.00;;;;;;;;;;5013059;28;20077;-64
2022/02/28 12:57:07;;;;;;;15.77;8.40;;;;;;;;;;4995359;28;20406;-64
2022/02/28 12:59:49;;;;;;;8.13;2.65;;;;;;;;;;4951254;29;20062;-64
2022/02/28 13:02:20;;;;;;;3.67;2.28;;;;;;;;;;4951563;29;20078;-64
2022/02/28 13:04:55;;;;;;;5.80;2.38;;;;;;;;;;4932029;29;20056;-64
2022/02/28 13:07:28;;;;;;;6.43;2.40;;;;;;;;;;4902212;29;20056;-64
2022/02/28 13:09:58;;;;;;;3.50;2.10;;;;;;;;;;4917319;29;20394;-64
2022/02/28 13:12:33;;;;;;;4.63;2.20;;;;;;;;;;4913183;29;20067;-65
2022/02/28 13:15:04;;;;;;;3.13;1.90;;;;;;;;;;4913320;29;20067;-64
2022/02/28 13:17:39;;;;;;;7.90;2.30;;;;;;;;;;4913297;29;20052;-63
2022/02/28 13:20:11;;;;;;;5.18;2.40;;;;;;;;;;4894237;29;20060;-63
2022/02/28 13:22:44;;;;;;;7.13;2.40;;;;;;;;;;4875614;29;20441;-63
2022/02/28 13:25:17;;;;;;;3.58;2.20;;;;;;;;;;4875401;29;20479;-64
2022/02/28 13:27:51;;;;;;;4.70;2.17;;;;;;;;;;4860437;29;20053;-62
2022/02/28 13:30:23;;;;;;;4.97;2.15;;;;;;;;;;4844269;29;20541;-63
2022/02/28 13:32:55;;;;;;;6.80;2.10;;;;;;;;;;4875567;29;20065;-63
2022/02/28 13:35:26;;;;;;;5.47;1.92;;;;;;;;;;4875329;29;20437;-63
2022/02/28 13:37:59;;;;;;;;;;;;;;;;;;4904889;29;20545;-62
2022/02/28 13:40:34;;;;;;;3.97;2.33;;;;;;;;;;4912905;29;19923;-62
2022/02/28 13:43:09;;;;;;;5.18;2.00;;;;;;;;;;4915982;29;20052;-62
2022/02/28 13:45:43;;;;;;;5.85;2.03;;;;;;;;;;4900492;29;20070;-60
2022/02/28 13:48:30;;;;;;;3.30;2.05;;;;;;;;;;4931517;29;20079;-61
2022/02/28 13:51:02;;;;;;;8.15;3.78;;;;;;;;;;4947675;29;20055;-61
2022/02/28 13:53:44;;;;;;;4.32;2.58;;;;;;;;;;4950485;29;20423;-60
2022/02/28 13:56:29;;;;;;;3.70;1.98;;;;;;;;;;4950717;29;20066;-61
2022/02/28 13:59:15;;;;;;;4.60;2.08;;;;;;;;;;4969978;28;20487;-61
2022/02/28 14:01:55;;;;;;;4.43;1.88;;;;;;;;;;4989120;28;20050;-60
2022/02/28 14:04:39;;;;;;;7.43;2.08;;;;;;;;;;4989490;28;20050;-60
2022/02/28 14:07:13;;;;;;;3.15;1.95;;;;;;;;;;4958699;28;20521;-60
2022/02/28 14:09:53;;;;;;;2.97;1.70;;;;;;;;;;4989329;28;20046;-61
2022/02/28 14:12:32;;;;;;;5.78;2.33;;;;;;;;;;4989083;28;20054;-60
2022/02/28 14:15:08;;;;;;;;;;;;;;;;;;4989531;28;20081;-60
2022/02/28 14:17:55;;;;;;;3.25;1.80;;;;;;;;;;4989050;28;19928;-60
2022/02/28 14:20:26;;;;;;;4.30;1.92;;;;;;;;;;4956742;28;20545;-61
2022/02/28 14:23:18;;;;;;;3.22;1.90;;;;;;;;;;4948571;28;20062;-60
2022/02/28 14:26:15;;;;;;;4.93;1.90;;;;;;;;;;4938079;29;20051;-61
2022/02/28 14:29:10;;;;;;;5.70;2.00;;;;;;;;;;4950521;29;20093;-61
2022/02/28 14:32:02;;;;;;;6.03;2.15;;;;;;;;;;4937543;29;20058;-61
2022/02/28 14:34:40;;;;;;;5.28;2.40;;;;;;;;;;4934155;29;20059;-63
2022/02/28 14:37:12;;;;;;;6.95;2.00;;;;;;;;;;4950234;29;20055;-63
2022/02/28 14:39:45;;;;;;;5.35;1.90;;;;;;;;;;4946878;28;20047;-62
2022/02/28 14:42:16;;;;;;;5.18;2.05;;;;;;;;;;4954249;28;20039;-63
2022/02/28 14:44:47;;;;;;;4.85;2.17;;;;;;;;;;4922296;28;20066;-62
2022/02/28 14:47:19;;;;;;;4.63;2.00;;;;;;;;;;4969715;28;20046;-63
2022/02/28 14:49:52;;;;;;;4.10;1.85;;;;;;;;;;4904775;29;20051;-62
2022/02/28 14:52:44;;;;;;;4.32;2.13;;;;;;;;;;4919963;29;20074;-62
2022/02/28 14:55:17;;;;;;;3.97;2.20;;;;;;;;;;4894455;29;20059;-62
2022/02/28 14:57:49;;;;;;;5.57;1.73;;;;;;;;;;4893653;29;20063;-61
2022/02/28 15:00:26;;;;;;;3.10;1.98;;;;;;;;;;4910236;29;20068;-61
2022/02/28 15:02:58;;;;;;;3.35;2.00;;;;;;;;;;4948114;28;20062;-61
2022/02/28 15:05:33;;;;;;;9.45;2.00;;;;;;;;;;4941335;28;20066;-61
2022/02/28 15:08:07;;;;;;;8.23;2.10;;;;;;;;;;4971509;28;20058;-61
2022/02/28 15:10:43;;;;;;;4.25;1.75;;;;;;;;;;4985307;28;20506;-60
2022/02/28 15:13:15;;;;;;;4.35;1.75;;;;;;;;;;4991840;28;20054;-61
2022/02/28 15:15:49;;;;;;;5.32;1.70;;;;;;;;;;4991696;28;20046;-60
2022/02/28 15:18:20;;;;;;;2.97;1.80;;;;;;;;;;4990636;28;20498;-61
2022/02/28 15:20:50;;;;;;;5.03;2.10;;;;;;;;;;4990426;28;20063;-59
2022/02/28 15:23:22;;;;;;;3.33;1.65;;;;;;;;;;4990868;28;20683;-61
2022/02/28 15:25:56;;;;;;;3.92;1.50;;;;;;;;;;4978250;28;20054;-60